Hauptseite
METAR-TAF:

METAR-TAF

Flughäfen :

Umiujaq, Québec, Kanada

Breite: 56-32N, Länge: 076-31W, Höhe: 71 m

Beobachtung

Neuester Wetterbericht von vor 12 Stunden und 4 Minuten, um 22:00 UTC
Wind 11 kt aus Süd/Südost
Temperatur -23°C
Luftfeuchtigkeit 76%
Luftdruck 1019 hPa
Sichtweite: 24.1 km
Leicht bewölkt in der Höhe von 6000 ft
Leicht bewölkt in der Höhe von 20000 ft

METAR: CYMU 242200Z 15011KT 15SM FEW060 FEW200 M23/M26 A3008 RMK SC1CI1 CI TR LAST STFD OBS/NEXT 251300Z SLP199

Zeit: 05:04 (10:04 UTC)


TAF: fehlend

Wetterbeobachtungen und Prognosen von mehr als 4000 Flughäfen (METAR und TAF Bericht).

Die verfügbaren Stationen werden durch gelbe und rote Markierungen auf der Karte dargestellt.

Führen Sie die Maus auf sie, um den Namen der Station zu sehen.

Darauf klicken, um die Beobachtung von Wetterbeobachtungen und Prognosen zu sehen.

Um die Karte zu ändern : klicken Sie auf den grünen Tasten mit einem schwarzen Kreuz Zum Vergrößern, auf den grünen Button mit einem Gedankenstrich zu verkleinern, oder auf die grünen Pfeile für benachbarte Karten.


METAR-TAF: